Time;durP1;ratioP1;P1;durP2;ratioP2;P2;SDS_P1;SDS_P2;PMS_P1;PMS_P2;Temp;Humidity;BMP_temperature;BMP_pressure;BME280_temperature;BME280_humidity;BME280_pressure;Samples;Min_cycle;Max_cycle;Signal;HPM_P1;HPM_P2
2021/08/28 00:00:06;;;;;;;9.02;3.67;;;;;;;12.88;94.21;100106.16;5113261;28;20040;-69
2021/08/28 00:02:34;;;;;;;6.97;3.28;;;;;;;12.77;94.90;100107.91;5113547;28;20063;-69
2021/08/28 00:05:03;;;;;;;6.78;3.22;;;;;;;12.70;95.31;100112.81;5113882;28;20047;-69
2021/08/28 00:07:33;;;;;;;4.80;2.85;;;;;;;12.64;95.94;100115.06;5113330;28;20381;-69
2021/08/28 00:10:04;;;;;;;4.88;3.17;;;;;;;12.58;96.27;100113.69;5113522;28;20039;-70
2021/08/28 00:12:32;;;;;;;5.95;3.55;;;;;;;12.57;96.50;100120.03;5113520;28;20040;-70
2021/08/28 00:15:00;;;;;;;7.30;3.38;;;;;;;12.51;96.80;100118.63;5113698;28;20442;-69
2021/08/28 00:17:33;;;;;;;5.80;3.30;;;;;;;12.57;96.81;100118.19;5113508;28;20055;-70
2021/08/28 00:20:02;;;;;;;5.50;3.15;;;;;;;12.60;96.30;100125.16;5113721;28;20047;-69
2021/08/28 00:22:33;;;;;;;7.82;3.90;;;;;;;12.57;96.32;100115.53;5113111;28;20075;-71
2021/08/28 00:25:01;;;;;;;6.82;3.90;;;;;;;12.60;96.36;100134.03;5113617;28;20042;-69
2021/08/28 00:27:30;;;;;;;6.50;3.65;;;;;;;12.59;96.31;100137.66;5113169;28;20126;-71
2021/08/28 00:29:58;;;;;;;6.00;3.47;;;;;;;12.57;96.63;100142.28;5113249;28;20036;-69
2021/08/28 00:32:29;;;;;;;7.68;3.38;;;;;;;12.50;96.87;100142.81;5113624;28;20388;-69
2021/08/28 00:34:57;;;;;;;6.43;3.72;;;;;;;12.46;97.14;100139.50;5113323;28;20040;-69
2021/08/28 00:37:26;;;;;;;9.32;4.10;;;;;;;12.42;97.73;100135.31;5113477;28;20043;-70
2021/08/28 00:39:56;;;;;;;5.30;3.47;;;;;;;12.44;97.57;100133.38;5113054;28;20051;-70
2021/08/28 00:42:26;;;;;;;7.05;3.40;;;;;;;12.46;97.39;100134.16;5113288;28;20046;-70
2021/08/28 00:44:57;;;;;;;7.20;3.70;;;;;;;12.44;97.56;100133.38;5113370;28;20122;-70
2021/08/28 00:47:27;;;;;;;7.75;3.75;;;;;;;12.35;98.20;100131.34;5113122;28;20048;-69
2021/08/28 00:49:57;;;;;;;6.30;3.45;;;;;;;12.34;98.12;100137.66;5113333;28;20396;-70
2021/08/28 00:52:25;;;;;;;7.65;3.53;;;;;;;12.40;98.02;100137.25;5113070;28;20046;-70
2021/08/28 00:54:59;;;;;;;6.57;3.60;;;;;;;12.43;97.41;100131.66;5113345;28;20081;-71
2021/08/28 00:57:27;;;;;;;5.95;3.30;;;;;;;12.46;97.17;100130.63;5113259;28;20067;-71
2021/08/28 00:59:55;;;;;;;6.90;3.72;;;;;;;12.40;97.84;100126.53;5112763;28;20039;-71
2021/08/28 01:02:26;;;;;;;7.97;3.70;;;;;;;12.35;98.12;100128.66;5113420;28;20047;-71
2021/08/28 01:05:02;;;;;;;5.53;3.20;;;;;;;12.43;98.00;100126.31;5112657;28;20048;-72
2021/08/28 01:07:37;;;;;;;7.70;4.05;;;;;;;12.37;98.38;100129.44;5113360;28;20391;-70
2021/08/28 01:10:09;;;;;;;6.82;3.40;;;;;;;12.62;96.25;100131.25;5112991;28;20052;-70
2021/08/28 01:12:43;;;;;;;9.07;3.90;;;;;;;12.68;94.75;100124.59;5114385;28;20089;-71
2021/08/28 01:15:16;;;;;;;6.10;3.53;;;;;;;12.60;94.94;100126.00;5117149;28;20081;-70
2021/08/28 01:17:48;;;;;;;6.90;3.80;;;;;;;12.55;95.11;100120.13;5116719;28;20050;-70
2021/08/28 01:20:26;;;;;;;7.65;3.88;;;;;;;12.41;96.06;100117.56;5117015;28;20047;-70
2021/08/28 01:22:55;;;;;;;5.50;3.65;;;;;;;12.25;96.99;100125.78;5116496;28;20039;-70
2021/08/28 01:25:28;;;;;;;7.05;3.58;;;;;;;12.18;98.00;100120.97;5116982;28;20042;-69
2021/08/28 01:28:03;;;;;;;7.20;3.55;;;;;;;12.20;98.24;100116.38;5116484;28;20089;-70
2021/08/28 01:30:34;;;;;;;5.10;3.28;;;;;;;12.21;98.56;100107.38;5116762;28;20059;-69
2021/08/28 01:33:04;;;;;;;5.60;3.28;;;;;;;12.18;98.35;100118.31;5116553;28;20040;-70
2021/08/28 01:35:33;;;;;;;5.57;3.03;;;;;;;12.18;98.64;100118.31;5116491;28;20035;-70
2021/08/28 01:38:02;;;;;;;6.90;3.67;;;;;;;12.10;98.51;100118.81;5116813;28;20043;-70
2021/08/28 01:40:32;;;;;;;5.38;3.38;;;;;;;12.04;98.77;100120.09;5116574;28;20142;-70
2021/08/28 01:43:01;;;;;;;7.55;3.30;;;;;;;12.00;98.68;100123.94;5116577;28;20046;-70
2021/08/28 01:45:30;;;;;;;6.18;3.67;;;;;;;11.96;99.38;100126.91;5116595;28;20039;-70
2021/08/28 01:48:05;;;;;;;7.05;3.70;;;;;;;11.88;99.62;100134.63;5116319;28;20051;-71
2021/08/28 01:50:34;;;;;;;7.57;3.47;;;;;;;11.88;99.60;100130.13;5116430;28;20139;-70
2021/08/28 01:53:02;;;;;;;7.75;3.92;;;;;;;11.86;98.93;100120.47;5116606;28;20040;-70
2021/08/28 01:55:30;;;;;;;7.05;3.95;;;;;;;11.87;98.30;100125.75;5116185;28;20036;-70
2021/08/28 01:57:58;;;;;;;8.65;3.72;;;;;;;11.88;98.73;100122.09;5115745;28;20048;-71
2021/08/28 02:00:27;;;;;;;4.78;3.35;;;;;;;11.97;99.03;100124.16;5116044;28;20085;-70
2021/08/28 02:02:55;;;;;;;5.05;3.42;;;;;;;12.03;98.52;100113.03;5116079;28;20043;-70
2021/08/28 02:05:27;;;;;;;6.07;3.20;;;;;;;12.00;98.73;100110.56;5115886;28;20047;-69
2021/08/28 02:08:02;;;;;;;5.80;2.90;;;;;;;12.06;99.25;100121.78;5115620;28;20066;-70
2021/08/28 02:10:38;;;;;;;6.60;3.00;;;;;;;12.10;98.80;100120.66;5115959;28;20040;-69
2021/08/28 02:13:16;;;;;;;6.95;3.60;;;;;;;12.07;98.09;100116.38;5116044;28;20415;-70
2021/08/28 02:15:50;;;;;;;5.82;3.42;;;;;;;11.96;98.36;100116.22;5115499;28;20510;-70
2021/08/28 02:18:25;;;;;;;6.45;3.50;;;;;;;11.91;98.82;100123.72;5115930;28;20484;-69
2021/08/28 02:20:57;;;;;;;7.40;3.60;;;;;;;11.87;99.25;100116.84;5115636;28;20428;-70
2021/08/28 02:23:33;;;;;;;8.13;3.60;;;;;;;11.79;99.45;100122.69;5115365;28;20462;-69
2021/08/28 02:26:05;;;;;;;6.75;3.95;;;;;;;11.76;100.00;100114.88;5115863;28;20047;-70
2021/08/28 02:28:38;;;;;;;7.30;3.80;;;;;;;11.65;100.00;100112.06;5115515;28;20374;-69
2021/08/28 02:31:07;;;;;;;6.55;3.72;;;;;;;11.63;100.00;100104.16;5115500;28;20043;-72
2021/08/28 02:33:37;;;;;;;5.63;3.58;;;;;;;11.66;100.00;100111.94;5115285;28;20100;-72
2021/08/28 02:36:10;;;;;;;8.85;4.00;;;;;;;11.76;99.55;100109.50;5115801;28;20050;-72
2021/08/28 02:38:41;;;;;;;5.95;3.40;;;;;;;11.82;99.37;100103.81;5115357;28;20067;-74
2021/08/28 02:41:10;;;;;;;7.63;3.70;;;;;;;11.68;99.57;100109.19;5115390;28;20416;-70
2021/08/28 02:43:38;;;;;;;8.13;3.97;;;;;;;11.60;100.00;100106.19;5115062;28;20075;-74
2021/08/28 02:46:06;;;;;;;6.88;3.90;;;;;;;11.53;100.00;100107.53;5115440;28;20040;-70
2021/08/28 02:48:37;;;;;;;7.18;4.22;;;;;;;11.55;100.00;100108.28;5115252;28;20703;-70
2021/08/28 02:51:10;;;;;;;8.23;4.43;;;;;;;11.62;99.16;100106.94;5115274;28;20044;-72
2021/08/28 02:53:43;;;;;;;10.93;4.57;;;;;;;11.68;97.59;100106.53;5114957;28;20422;-75
2021/08/28 02:56:12;;;;;;;;;;;;;;;11.83;96.19;100116.19;5115355;28;20477;-71
2021/08/28 02:58:43;;;;;;;5.03;3.40;;;;;;;11.97;95.39;100105.44;5114538;28;19919;-72
2021/08/28 03:01:13;;;;;;;6.60;4.10;;;;;;;11.89;95.69;100105.09;5114738;28;20043;-70
2021/08/28 03:03:43;;;;;;;7.68;4.32;;;;;;;11.88;96.31;100111.41;5114788;28;20100;-70
2021/08/28 03:06:16;;;;;;;8.15;4.35;;;;;;;11.74;97.17;100103.44;5114908;28;20040;-70
2021/08/28 03:08:47;;;;;;;7.20;4.18;;;;;;;11.72;96.54;100108.03;5114479;28;20035;-70
2021/08/28 03:11:18;;;;;;;9.25;5.38;;;;;;;11.65;96.78;100106.72;5114572;28;20074;-70
2021/08/28 03:13:47;;;;;;;10.70;6.00;;;;;;;11.70;96.95;100107.28;5114475;28;20051;-70
2021/08/28 03:16:19;;;;;;;10.27;5.35;;;;;;;11.78;96.80;100102.28;5114849;28;20055;-70
2021/08/28 03:18:49;;;;;;;7.65;4.75;;;;;;;11.74;96.96;100101.59;5114310;28;20476;-71
2021/08/28 03:21:20;;;;;;;8.40;5.20;;;;;;;11.71;97.01;100100.97;5114559;28;20537;-71
2021/08/28 03:23:51;;;;;;;9.50;5.30;;;;;;;11.63;97.79;100095.28;5114023;28;20045;-71
2021/08/28 03:26:24;;;;;;;8.63;5.55;;;;;;;11.57;98.53;100109.88;5114755;28;20071;-71
2021/08/28 03:28:53;;;;;;;8.73;5.15;;;;;;;11.60;98.25;100106.19;5114251;28;20122;-71
2021/08/28 03:31:24;;;;;;;9.40;5.13;;;;;;;11.56;98.59;100104.66;5114220;28;20384;-71
2021/08/28 03:33:58;;;;;;;8.68;5.38;;;;;;;11.54;98.65;100110.09;5114034;28;20046;-70
2021/08/28 03:36:29;;;;;;;11.43;6.20;;;;;;;11.44;98.96;100112.53;5113586;28;20035;-70
2021/08/28 03:38:57;;;;;;;10.10;5.47;;;;;;;11.42;98.85;100105.59;5114053;28;20085;-70
2021/08/28 03:41:26;;;;;;;9.50;5.75;;;;;;;11.45;97.98;100106.22;5113928;28;20060;-70
2021/08/28 03:43:54;;;;;;;9.50;5.28;;;;;;;11.41;98.28;100115.41;5113793;28;20548;-70
2021/08/28 03:46:23;;;;;;;8.55;5.28;;;;;;;11.34;99.23;100116.75;5114135;28;20039;-72
2021/08/28 03:48:53;;;;;;;9.55;5.40;;;;;;;11.29;100.00;100112.66;5095693;28;20044;-69
2021/08/28 03:51:22;;;;;;;8.60;4.60;;;;;;;11.33;99.47;100111.53;5113493;28;20139;-68
2021/08/28 03:53:51;;;;;;;6.63;4.55;;;;;;;11.49;97.55;100112.25;5113713;28;20089;-69
2021/08/28 03:56:19;;;;;;;11.48;5.28;;;;;;;11.59;96.58;100107.16;5114147;28;20044;-69
2021/08/28 03:58:53;;;;;;;9.45;4.85;;;;;;;11.53;97.20;100112.88;5113622;28;20047;-70
2021/08/28 04:01:22;;;;;;;9.73;4.82;;;;;;;11.53;96.65;100113.75;5113789;28;20138;-70
2021/08/28 04:03:52;;;;;;;7.35;4.63;;;;;;;11.56;96.55;100107.31;5113665;28;20480;-70
2021/08/28 04:06:20;;;;;;;8.68;4.93;;;;;;;11.41;97.74;100122.56;5113742;28;20046;-70
2021/08/28 04:08:48;;;;;;;7.72;4.82;;;;;;;11.33;98.23;100128.41;5113373;28;20043;-71
2021/08/28 04:11:21;;;;;;;8.82;4.85;;;;;;;11.35;98.50;100131.81;5113597;28;20473;-70
2021/08/28 04:13:52;;;;;;;9.43;4.90;;;;;;;11.28;99.11;100130.50;5113217;28;20054;-70
2021/08/28 04:16:20;;;;;;;8.88;5.07;;;;;;;11.26;99.07;100131.56;5113929;28;20051;-70
2021/08/28 04:18:48;;;;;;;12.38;5.93;;;;;;;11.35;97.72;100129.16;5113374;28;20067;-71
2021/08/28 04:21:17;;;;;;;11.43;5.93;;;;;;;11.47;96.68;100125.66;5113453;28;20040;-72
2021/08/28 04:23:45;;;;;;;14.15;6.22;;;;;;;11.51;96.79;100130.84;5113099;28;20039;-71
2021/08/28 04:26:13;;;;;;;13.05;6.22;;;;;;;11.56;96.98;100134.03;5113595;28;20040;-70
2021/08/28 04:28:43;;;;;;;12.52;5.80;;;;;;;11.62;96.88;100133.66;5113600;28;20357;-70
2021/08/28 04:31:11;;;;;;;9.18;5.20;;;;;;;11.67;97.08;100131.50;5113375;28;20067;-69
2021/08/28 04:33:39;;;;;;;8.07;5.10;;;;;;;11.72;97.08;100132.06;5113235;28;20054;-69
2021/08/28 04:36:08;;;;;;;9.75;5.45;;;;;;;11.80;96.87;100129.78;5094853;28;20475;-69
2021/08/28 04:38:36;;;;;;;7.35;4.80;;;;;;;11.89;96.73;100134.50;5113396;28;20048;-69
2021/08/28 04:41:07;;;;;;;10.35;5.18;;;;;;;11.98;96.52;100139.25;5112612;28;20052;-69
2021/08/28 04:43:35;;;;;;;10.40;5.32;;;;;;;12.18;96.14;100131.69;5113342;28;20384;-70
2021/08/28 04:46:05;;;;;;;12.25;6.00;;;;;;;12.27;95.38;100131.91;5113426;28;20426;-70
2021/08/28 04:48:34;;;;;;;10.95;5.32;;;;;;;12.32;95.70;100134.25;5117686;28;20074;-70
2021/08/28 04:51:04;;;;;;;10.30;5.85;;;;;;;12.39;95.57;100135.53;5117109;28;20047;-71
2021/08/28 04:53:32;;;;;;;7.57;5.50;;;;;;;12.47;95.54;100127.84;5117270;28;20059;-70
2021/08/28 04:56:03;;;;;;;8.18;6.15;;;;;;;12.51;95.75;100134.66;5117122;28;20047;-70
2021/08/28 04:58:33;;;;;;;9.35;5.72;;;;;;;12.58;95.09;100130.59;5116826;28;20058;-71
2021/08/28 05:01:02;;;;;;;7.18;5.43;;;;;;;12.80;93.41;100131.75;5116754;28;20047;-71
2021/08/28 05:03:32;;;;;;;10.13;6.72;;;;;;;12.81;91.83;100130.78;5117326;28;20043;-71
2021/08/28 05:06:00;;;;;;;13.38;7.93;;;;;;;12.95;91.58;100133.34;5116636;28;20047;-71
2021/08/28 05:08:28;;;;;;;13.20;8.80;;;;;;;13.08;89.90;100130.63;5117113;28;20032;-71
2021/08/28 05:10:56;;;;;;;14.82;8.77;;;;;;;13.09;89.38;100133.19;5116412;28;20051;-71
2021/08/28 05:13:25;;;;;;;11.25;8.50;;;;;;;13.14;89.36;100132.88;5117118;28;20469;-71
2021/08/28 05:15:53;;;;;;;12.23;8.23;;;;;;;13.09;89.62;100127.00;5116632;28;20089;-73
2021/08/28 05:18:22;;;;;;;17.42;9.65;;;;;;;12.96;90.58;100123.50;5116822;28;20052;-74
2021/08/28 05:20:51;;;;;;;12.52;8.30;;;;;;;12.92;91.09;100132.69;5116597;28;20050;-74
2021/08/28 05:23:19;;;;;;;18.75;9.63;;;;;;;13.07;90.45;100143.16;5116880;28;20050;-72
2021/08/28 05:25:48;;;;;;;13.20;8.98;;;;;;;13.24;89.07;100146.50;5116626;28;20100;-78
2021/08/28 05:28:16;;;;;;;11.90;7.90;;;;;;;13.14;89.25;100154.31;5116782;28;20122;-73
2021/08/28 05:30:44;;;;;;;12.27;8.45;;;;;;;13.01;90.03;100159.66;5097817;28;20050;-72
2021/08/28 05:33:14;;;;;;;14.68;8.27;;;;;;;12.97;90.46;100163.53;5116653;28;20036;-72
2021/08/28 05:35:43;;;;;;;13.90;8.95;;;;;;;12.98;90.96;100154.53;5116814;28;20039;-73
2021/08/28 05:38:12;;;;;;;13.00;9.55;;;;;;;13.09;90.67;100159.13;5116283;28;20050;-71
2021/08/28 05:40:41;;;;;;;13.18;8.13;;;;;;;13.18;90.67;100151.28;5116363;28;20377;-71
2021/08/28 05:43:09;;;;;;;11.88;8.35;;;;;;;13.30;90.43;100148.69;5116189;28;20055;-72
2021/08/28 05:45:37;;;;;;;11.68;8.02;;;;;;;13.38;90.33;100147.19;5116497;28;20472;-71
2021/08/28 05:48:06;;;;;;;12.88;7.82;;;;;;;13.56;90.25;100146.78;5116092;28;20047;-71
2021/08/28 05:50:34;;;;;;;10.27;6.93;;;;;;;13.67;89.67;100146.84;5116111;28;20044;-71
2021/08/28 05:53:02;;;;;;;12.88;6.85;;;;;;;13.78;89.50;100146.03;5115850;28;20047;-72
2021/08/28 05:55:32;;;;;;;13.95;7.50;;;;;;;13.82;89.29;100144.84;5116154;28;20050;-71
2021/08/28 05:58:00;;;;;;;11.50;7.30;;;;;;;14.08;88.15;100135.66;5115030;28;20485;-71
2021/08/28 06:00:28;;;;;;;11.50;7.35;;;;;;;14.24;87.18;100138.88;5116372;28;20084;-70
2021/08/28 06:02:56;;;;;;;12.68;7.70;;;;;;;14.30;86.96;100132.22;5115527;28;20047;-71
2021/08/28 06:05:24;;;;;;;9.98;7.45;;;;;;;14.31;87.25;100137.44;5116228;28;20127;-70
2021/08/28 06:07:53;;;;;;;11.00;7.60;;;;;;;14.30;87.18;100140.25;5115663;28;20408;-72
2021/08/28 06:10:22;;;;;;;12.80;7.78;;;;;;;14.35;87.45;100137.22;5115522;28;20047;-72
2021/08/28 06:12:52;;;;;;;12.07;7.18;;;;;;;14.42;87.24;100143.81;5115358;28;20541;-73
2021/08/28 06:15:20;;;;;;;14.70;7.95;;;;;;;14.59;86.17;100143.38;5115421;28;20035;-73
2021/08/28 06:17:48;;;;;;;10.75;6.95;;;;;;;14.95;85.17;100146.78;5115413;28;20032;-73
2021/08/28 06:20:18;;;;;;;11.52;7.18;;;;;;;15.50;82.43;100142.31;5115208;28;20048;-72
2021/08/28 06:22:46;;;;;;;13.35;7.93;;;;;;;16.35;78.31;100137.84;5112841;28;20039;-73
2021/08/28 06:25:14;;;;;;;12.27;7.18;;;;;;;16.68;77.18;100133.19;5115050;28;20052;-71
2021/08/28 06:27:42;;;;;;;10.85;7.03;;;;;;;17.01;75.03;100135.66;5115788;28;20085;-71
2021/08/28 06:30:12;;;;;;;13.30;7.20;;;;;;;17.62;73.82;100142.75;5119565;28;20097;-73
2021/08/28 06:32:41;;;;;;;11.18;7.13;;;;;;;18.50;69.17;100133.63;5112397;28;20130;-74
2021/08/28 06:35:10;;;;;;;11.70;6.90;;;;;;;19.38;65.55;100129.59;5114792;28;20062;-70
2021/08/28 06:37:38;;;;;;;9.18;6.53;;;;;;;19.28;64.92;100129.66;5115157;28;20048;-69
2021/08/28 06:40:07;;;;;;;11.85;7.10;;;;;;;19.49;65.06;100126.69;5115096;28;20050;-72
2021/08/28 06:42:36;;;;;;;11.23;6.45;;;;;;;19.27;65.22;100127.09;5115141;28;20455;-74
2021/08/28 06:45:06;;;;;;;10.35;6.70;;;;;;;18.84;66.92;100131.31;5114749;28;20044;-79
2021/08/28 06:47:35;;;;;;;10.85;6.78;;;;;;;18.44;68.27;100131.53;5115113;28;20043;-76
2021/08/28 06:50:04;;;;;;;9.40;5.53;;;;;;;18.08;69.40;100136.69;5114583;28;20044;-74
2021/08/28 06:52:33;;;;;;;9.85;5.68;;;;;;;17.93;70.22;100136.25;5115342;28;20039;-76
2021/08/28 06:55:02;;;;;;;6.85;4.65;;;;;;;17.86;70.48;100131.59;5114614;28;20088;-77
2021/08/28 06:57:30;;;;;;;9.25;5.15;;;;;;;17.82;71.54;100128.31;5115314;28;20054;-76
2021/08/28 06:59:59;;;;;;;8.82;4.78;;;;;;;17.86;70.66;100139.69;5114523;28;20118;-77
2021/08/28 07:02:27;;;;;;;6.22;4.20;;;;;;;17.87;71.09;100138.69;5114819;28;20093;-71
2021/08/28 07:04:57;;;;;;;8.48;4.88;;;;;;;17.83;71.05;100132.72;5114781;28;20118;-71
2021/08/28 07:07:25;;;;;;;8.50;4.00;;;;;;;17.82;69.94;100128.31;5114868;28;20039;-75
2021/08/28 07:09:53;;;;;;;6.57;4.50;;;;;;;17.67;70.58;100125.16;5113914;28;20066;-75
2021/08/28 07:12:22;;;;;;;8.07;4.30;;;;;;;17.90;70.20;100120.38;5114474;28;20044;-74
2021/08/28 07:14:50;;;;;;;7.57;4.47;;;;;;;17.91;70.36;100121.22;5114537;28;20096;-75
2021/08/28 07:17:18;;;;;;;7.75;3.95;;;;;;;17.91;70.44;100113.13;5114490;28;20047;-75
2021/08/28 07:19:46;;;;;;;6.38;3.78;;;;;;;17.96;69.91;100116.25;5114862;28;20048;-75
2021/08/28 07:22:16;;;;;;;6.45;4.10;;;;;;;18.18;69.87;100110.53;5114234;28;20404;-75
2021/08/28 07:24:44;;;;;;;6.40;3.72;;;;;;;18.11;69.59;100117.50;5114656;28;20051;-69
2021/08/28 07:27:12;;;;;;;6.05;3.85;;;;;;;18.00;69.80;100118.50;5114305;28;20061;-75
2021/08/28 07:29:41;;;;;;;6.15;3.72;;;;;;;18.06;70.68;100124.34;5114465;28;20050;-70
2021/08/28 07:32:10;;;;;;;7.30;3.60;;;;;;;18.14;70.31;100124.47;5114608;28;20079;-69
2021/08/28 07:34:39;;;;;;;10.20;3.40;;;;;;;18.05;70.34;100122.63;5114068;28;20119;-69
2021/08/28 07:37:07;;;;;;;7.70;3.30;;;;;;;18.21;70.53;100118.34;5114553;28;20043;-69
2021/08/28 07:39:37;;;;;;;5.10;2.75;;;;;;;18.27;68.94;100122.31;5113788;28;20036;-68
2021/08/28 07:42:05;;;;;;;5.20;2.90;;;;;;;18.37;69.93;100120.47;5110710;28;20054;-72
2021/08/28 07:44:34;;;;;;;5.47;3.10;;;;;;;18.68;68.01;100125.66;5111574;28;20438;-70
2021/08/28 07:47:03;;;;;;;6.63;2.80;;;;;;;18.59;68.22;100122.81;5114260;28;20093;-72
2021/08/28 07:49:32;;;;;;;5.22;2.35;;;;;;;18.73;67.54;100124.25;5114146;28;20092;-73
2021/08/28 07:52:00;;;;;;;3.67;2.20;;;;;;;18.74;67.78;100123.22;5113749;28;20044;-72
2021/08/28 07:54:28;;;;;;;4.95;2.15;;;;;;;18.65;67.87;100126.81;5111874;28;20050;-72
2021/08/28 07:56:59;;;;;;;7.45;2.05;;;;;;;18.73;67.72;100123.38;5095649;28;20047;-72
2021/08/28 07:59:28;;;;;;;4.60;2.10;;;;;;;18.54;67.31;100124.28;5114003;28;20062;-72
2021/08/28 08:01:56;;;;;;;3.53;2.05;;;;;;;18.44;67.38;100126.16;5113578;28;20044;-71
2021/08/28 08:04:25;;;;;;;4.00;1.73;;;;;;;18.52;67.37;100124.38;5113870;28;20050;-72
2021/08/28 08:06:53;;;;;;;4.80;1.92;;;;;;;18.47;67.76;100115.03;5095710;28;20092;-72
2021/08/28 08:09:21;;;;;;;2.60;1.77;;;;;;;18.50;67.10;100114.72;5113340;28;20043;-70
2021/08/28 08:11:49;;;;;;;3.40;1.83;;;;;;;18.39;67.11;100114.91;5113323;28;20062;-71
2021/08/28 08:14:19;;;;;;;3.95;1.83;;;;;;;18.44;66.44;100107.25;5113532;28;20040;-71
2021/08/28 08:16:47;;;;;;;3.15;1.58;;;;;;;18.52;64.60;100104.63;5113546;28;20057;-68
2021/08/28 08:19:16;;;;;;;3.40;1.50;;;;;;;18.74;62.87;100109.72;5113604;28;20523;-69
2021/08/28 08:21:44;;;;;;;3.53;1.55;;;;;;;18.79;63.53;100111.97;5112861;28;20051;-70
2021/08/28 08:24:12;;;;;;;3.70;1.90;;;;;;;18.77;65.53;100104.00;5113752;28;20121;-69
2021/08/28 08:26:40;;;;;;;3.50;1.70;;;;;;;18.84;62.22;100105.13;5113265;28;20055;-69
2021/08/28 08:29:09;;;;;;;4.22;1.70;;;;;;;18.75;62.57;100099.78;5113421;28;20064;-69
2021/08/28 08:31:38;;;;;;;3.20;1.65;;;;;;;18.95;62.42;100106.78;5113415;28;20122;-69
2021/08/28 08:34:06;;;;;;;3.08;1.48;;;;;;;19.14;61.72;100104.00;5113340;28;20039;-69
2021/08/28 08:36:35;;;;;;;3.67;1.58;;;;;;;19.21;60.59;100111.50;5113218;28;20511;-70
2021/08/28 08:39:05;;;;;;;2.20;1.38;;;;;;;19.10;60.69;100105.28;5113193;28;20050;-69
2021/08/28 08:41:35;;;;;;;2.78;1.40;;;;;;;19.17;60.62;100105.53;5112621;28;20059;-69
2021/08/28 08:44:03;;;;;;;4.13;1.60;;;;;;;19.23;61.32;100102.22;5113339;28;20050;-69
2021/08/28 08:46:32;;;;;;;3.10;1.55;;;;;;;19.40;60.06;100104.13;5113029;28;20051;-69
2021/08/28 08:49:02;;;;;;;3.55;1.65;;;;;;;19.23;60.69;100104.94;5113101;28;20043;-69
2021/08/28 08:51:31;;;;;;;4.78;1.63;;;;;;;19.26;61.06;100099.22;5112889;28;20165;-69
2021/08/28 08:54:01;;;;;;;4.00;1.58;;;;;;;19.40;60.58;100100.56;5113007;28;20039;-70
2021/08/28 08:56:30;;;;;;;2.72;1.50;;;;;;;19.42;61.23;100102.09;5113409;28;20067;-69
2021/08/28 08:58:58;;;;;;;3.45;1.67;;;;;;;19.52;60.18;100093.06;5094865;28;20048;-69
2021/08/28 09:01:27;;;;;;;3.80;1.90;;;;;;;19.63;59.84;100101.00;5112910;28;20522;-69
2021/08/28 09:03:55;;;;;;;3.25;1.60;;;;;;;19.72;59.93;100100.06;5112946;28;20040;-69
2021/08/28 09:06:25;;;;;;;2.40;1.50;;;;;;;19.69;60.38;100098.53;5113283;28;20091;-69
2021/08/28 09:08:53;;;;;;;4.00;1.77;;;;;;;19.70;60.16;100096.69;5113254;28;20039;-69
2021/08/28 09:11:23;;;;;;;4.45;1.60;;;;;;;19.72;60.02;100083.84;5112635;28;20040;-69
2021/08/28 09:13:52;;;;;;;3.45;1.50;;;;;;;19.75;59.31;100091.63;5113159;28;20046;-68
2021/08/28 09:16:31;;;;;;;6.30;1.88;;;;;;;19.68;59.99;100093.25;5112920;28;20071;-69
2021/08/28 09:18:59;;;;;;;2.58;1.60;;;;;;;19.90;59.58;100091.97;5113087;28;20031;-69
2021/08/28 09:21:34;;;;;;;2.67;1.70;;;;;;;20.00;57.73;100092.72;5112724;28;20074;-69
2021/08/28 09:24:08;;;;;;;3.00;1.58;;;;;;;20.05;58.15;100097.66;5112991;28;20047;-69
2021/08/28 09:26:38;;;;;;;3.50;1.50;;;;;;;20.10;56.58;100098.03;5112854;28;20044;-68
2021/08/28 09:29:09;;;;;;;3.88;1.75;;;;;;;20.39;57.14;100090.47;5112497;28;20392;-69
2021/08/28 09:31:40;;;;;;;3.80;1.63;;;;;;;20.55;56.28;100090.59;5112606;28;20048;-69
2021/08/28 09:34:22;;;;;;;4.05;1.75;;;;;;;20.68;54.86;100095.59;5114703;28;20040;-69
2021/08/28 09:36:59;;;;;;;4.53;1.73;;;;;;;20.91;55.26;100082.31;5116485;28;20498;-69
2021/08/28 09:39:39;;;;;;;3.00;1.30;;;;;;;20.66;55.43;100085.94;5116839;28;20036;-69
2021/08/28 09:42:08;;;;;;;2.42;1.38;;;;;;;20.80;54.70;100085.31;5116327;28;20408;-69
2021/08/28 09:44:38;;;;;;;3.08;1.20;;;;;;;20.56;52.44;100086.88;5116599;28;20046;-69
2021/08/28 09:47:12;;;;;;;3.03;1.55;;;;;;;20.50;53.80;100082.09;5098239;28;20055;-69
2021/08/28 09:49:43;;;;;;;2.42;1.20;;;;;;;20.57;53.62;100079.59;5116278;28;20514;-69
2021/08/28 09:52:17;;;;;;;3.53;1.53;;;;;;;20.85;54.08;100080.25;5116211;28;20563;-69
2021/08/28 09:54:45;;;;;;;2.88;1.40;;;;;;;20.88;54.20;100077.22;5097927;28;20050;-69
2021/08/28 09:57:13;;;;;;;3.25;1.42;;;;;;;21.03;54.02;100086.41;5116333;28;20039;-69
2021/08/28 09:59:43;;;;;;;3.50;1.38;;;;;;;21.06;53.27;100080.69;5115769;28;20044;-69
2021/08/28 10:02:17;;;;;;;1.80;1.20;;;;;;;20.53;53.11;100084.47;5116075;28;20071;-69
2021/08/28 10:04:51;;;;;;;2.28;1.25;;;;;;;20.69;52.90;100082.88;5116074;28;20126;-69
2021/08/28 10:07:25;;;;;;;3.78;1.30;;;;;;;20.69;52.47;100080.19;5116053;28;20055;-69
2021/08/28 10:09:56;;;;;;;2.33;1.40;;;;;;;20.70;51.58;100071.88;5115579;28;20036;-69
2021/08/28 10:12:32;;;;;;;2.65;1.30;;;;;;;20.72;52.86;100071.72;5115669;28;20050;-66
2021/08/28 10:15:03;;;;;;;4.32;1.40;;;;;;;20.58;52.99;100070.47;5115932;28;20448;-67
2021/08/28 10:17:34;;;;;;;2.42;1.17;;;;;;;20.48;53.96;100067.03;5115808;28;20491;-68
2021/08/28 10:20:04;;;;;;;4.18;1.60;;;;;;;20.66;54.13;100061.53;5115061;28;20039;-69
2021/08/28 10:22:36;;;;;;;2.50;1.52;;;;;;;20.78;53.30;100058.38;5115657;28;20052;-67
2021/08/28 10:25:07;;;;;;;2.47;1.33;;;;;;;20.73;53.13;100057.16;5115634;28;20062;-67
2021/08/28 10:27:36;;;;;;;2.05;1.42;;;;;;;20.51;53.94;100048.56;5116185;28;20042;-70
2021/08/28 10:30:06;;;;;;;4.38;1.20;;;;;;;20.65;53.49;100051.69;5115431;28;20048;-67
2021/08/28 10:32:35;;;;;;;2.55;1.20;;;;;;;20.72;52.51;100055.44;5116477;28;20044;-68
2021/08/28 10:35:04;;;;;;;3.35;1.30;;;;;;;20.61;51.36;100047.59;5116352;28;20877;-68
2021/08/28 10:37:33;;;;;;;3.05;1.30;;;;;;;20.83;51.16;100045.16;5097110;28;20101;-70
2021/08/28 10:40:03;;;;;;;3.60;1.40;;;;;;;20.94;49.29;100044.03;5115061;28;20497;-71
2021/08/28 10:42:32;;;;;;;1.98;1.10;;;;;;;20.95;49.79;100043.03;5114909;28;20055;-71
2021/08/28 10:45:02;;;;;;;2.45;1.23;;;;;;;20.91;49.72;100049.78;5115161;28;20059;-67
2021/08/28 10:47:32;;;;;;;1.75;1.10;;;;;;;20.97;47.46;100048.28;5115035;28;20089;-67
2021/08/28 10:50:05;;;;;;;3.45;1.27;;;;;;;20.95;48.71;100044.88;5114419;28;20093;-68
2021/08/28 10:52:37;;;;;;;3.33;1.13;;;;;;;21.31;47.61;100045.50;5115163;28;20036;-67
2021/08/28 10:55:09;;;;;;;2.35;1.45;;;;;;;21.65;46.92;100050.84;5115149;28;20040;-67
2021/08/28 10:57:38;;;;;;;2.83;1.40;;;;;;;21.71;47.25;100048.31;5114792;28;20036;-68
2021/08/28 11:00:09;;;;;;;3.00;1.30;;;;;;;21.86;46.42;100050.34;5114420;28;20551;-69
2021/08/28 11:02:55;;;;;;;2.75;1.27;;;;;;;21.74;46.58;100051.69;5096548;28;20048;-69
2021/08/28 11:05:27;;;;;;;2.50;1.20;;;;;;;22.13;45.72;100038.31;5114870;28;20050;-69
2021/08/28 11:07:58;;;;;;;2.67;1.35;;;;;;;22.19;43.86;100029.44;5114839;28;20036;-69
2021/08/28 11:10:27;;;;;;;2.60;1.20;;;;;;;22.17;43.76;100026.91;5114096;28;20078;-69
2021/08/28 11:12:59;;;;;;;2.88;1.35;;;;;;;22.33;44.03;100023.31;5114644;28;20043;-68
2021/08/28 11:15:51;;;;;;;2.67;1.45;;;;;;;22.29;44.22;100024.66;5114455;28;20163;-71
2021/08/28 11:18:44;;;;;;;3.10;1.75;;;;;;;22.20;44.25;100020.31;5114602;28;20396;-70
2021/08/28 11:21:14;;;;;;;3.50;1.55;;;;;;;22.46;42.48;100020.91;5114214;28;20031;-70
2021/08/28 11:23:49;;;;;;;2.35;1.33;;;;;;;22.36;41.89;100019.41;5114109;28;20488;-69
2021/08/28 11:26:34;;;;;;;2.10;1.20;;;;;;;22.21;42.28;100005.69;5114495;28;20043;-68
2021/08/28 11:29:19;;;;;;;2.90;1.20;;;;;;;21.36;43.71;100006.03;5114458;28;20040;-65
2021/08/28 11:32:05;;;;;;;3.35;1.33;;;;;;;21.69;42.61;100001.47;5114039;28;20048;-70
2021/08/28 11:34:38;;;;;;;2.33;1.42;;;;;;;21.91;42.12;100004.53;5114395;28;20040;-70
2021/08/28 11:37:40;;;;;;;2.55;1.35;;;;;;;21.99;42.09;100012.63;5114295;28;20131;-68